sensor_id;sensor_type;location;lat;lon;timestamp;pressure;altitude;pressure_sealevel;temperature;humidity
25610;BME280;13479;49.044;8.716;2022-09-09T04:16:52;98660.03;;;15.93;76.44
25610;BME280;13479;49.044;8.716;2022-09-09T04:19:17;98657.41;;;15.85;76.30
25610;BME280;13479;49.044;8.716;2022-09-09T04:21:43;98664.44;;;15.78;76.89
25610;BME280;13479;49.044;8.716;2022-09-09T04:24:08;98671.13;;;15.73;77.29
25610;BME280;13479;49.044;8.716;2022-09-09T04:26:35;98683.03;;;15.71;77.55
25610;BME280;13479;49.044;8.716;2022-09-09T04:29:02;98682.66;;;15.82;77.71
25610;BME280;13479;49.044;8.716;2022-09-09T04:31:27;98690.56;;;15.67;77.78
25610;BME280;13479;49.044;8.716;2022-09-09T04:33:53;98683.06;;;15.54;78.30
25610;BME280;13479;49.044;8.716;2022-09-09T04:36:19;98697.94;;;15.65;78.77
25610;BME280;13479;49.044;8.716;2022-09-09T04:38:45;98714.81;;;15.74;78.69
25610;BME280;13479;49.044;8.716;2022-09-09T04:41:11;98715.28;;;15.78;78.43
25610;BME280;13479;49.044;8.716;2022-09-09T04:43:37;98713.94;;;15.82;78.34
25610;BME280;13479;49.044;8.716;2022-09-09T04:46:03;98716.56;;;15.98;77.85
25610;BME280;13479;49.044;8.716;2022-09-09T04:48:28;98716.88;;;16.03;77.76
25610;BME280;13479;49.044;8.716;2022-09-09T04:50:58;98719.19;;;16.06;77.42
25610;BME280;13479;49.044;8.716;2022-09-09T04:53:24;98722.06;;;16.05;77.13
25610;BME280;13479;49.044;8.716;2022-09-09T04:55:51;98724.19;;;16.10;76.79
25610;BME280;13479;49.044;8.716;2022-09-09T04:58:16;98714.88;;;15.97;76.59
25610;BME280;13479;49.044;8.716;2022-09-09T05:00:42;98705.03;;;15.98;76.50
25610;BME280;13479;49.044;8.716;2022-09-09T05:03:07;98700.53;;;15.90;76.82
25610;BME280;13479;49.044;8.716;2022-09-09T05:05:34;98685.97;;;15.93;77.10
25610;BME280;13479;49.044;8.716;2022-09-09T05:08:05;98699.44;;;16.08;76.76
25610;BME280;13479;49.044;8.716;2022-09-09T05:10:31;98689.19;;;15.88;77.53
25610;BME280;13479;49.044;8.716;2022-09-09T05:12:57;98687.31;;;15.88;78.30
25610;BME280;13479;49.044;8.716;2022-09-09T05:15:22;98702.84;;;15.93;77.84
25610;BME280;13479;49.044;8.716;2022-09-09T05:17:48;98720.72;;;16.01;77.29
25610;BME280;13479;49.044;8.716;2022-09-09T05:20:13;98733.69;;;16.20;75.13
25610;BME280;13479;49.044;8.716;2022-09-09T05:22:38;98715.31;;;16.17;74.97
25610;BME280;13479;49.044;8.716;2022-09-09T05:25:04;98697.44;;;16.33;73.99
25610;BME280;13479;49.044;8.716;2022-09-09T05:27:29;98679.81;;;16.39;74.41
25610;BME280;13479;49.044;8.716;2022-09-09T05:29:56;98701.47;;;16.60;73.35
25610;BME280;13479;49.044;8.716;2022-09-09T05:32:22;98687.91;;;16.77;72.65
25610;BME280;13479;49.044;8.716;2022-09-09T05:34:48;98680.28;;;16.89;72.12
25610;BME280;13479;49.044;8.716;2022-09-09T05:37:13;98681.84;;;17.36;71.24
25610;BME280;13479;49.044;8.716;2022-09-09T05:39:38;98680.25;;;17.57;69.78
25610;BME280;13479;49.044;8.716;2022-09-09T05:42:04;98650.94;;;17.55;69.68
25610;BME280;13479;49.044;8.716;2022-09-09T05:44:29;98642.88;;;17.55;69.41
25610;BME280;13479;49.044;8.716;2022-09-09T05:46:54;98655.81;;;17.67;68.63
25610;BME280;13479;49.044;8.716;2022-09-09T05:49:20;98652.94;;;17.83;67.76
25610;BME280;13479;49.044;8.716;2022-09-09T05:51:46;98649.81;;;18.16;66.64
25610;BME280;13479;49.044;8.716;2022-09-09T05:54:12;98644.53;;;18.08;65.45
25610;BME280;13479;49.044;8.716;2022-09-09T05:56:40;98626.63;;;17.94;65.48
25610;BME280;13479;49.044;8.716;2022-09-09T05:59:05;98613.47;;;17.84;65.81
25610;BME280;13479;49.044;8.716;2022-09-09T06:01:33;98591.28;;;17.75;66.26
25610;BME280;13479;49.044;8.716;2022-09-09T06:03:59;98598.88;;;17.71;66.20
25610;BME280;13479;49.044;8.716;2022-09-09T06:06:26;98597.03;;;17.72;66.50
25610;BME280;13479;49.044;8.716;2022-09-09T06:08:54;98609.34;;;17.81;65.97
25610;BME280;13479;49.044;8.716;2022-09-09T06:11:28;98632.47;;;17.82;65.98
25610;BME280;13479;49.044;8.716;2022-09-09T06:13:57;98608.97;;;17.84;66.31
25610;BME280;13479;49.044;8.716;2022-09-09T06:16:25;98660.09;;;18.13;64.74
25610;BME280;13479;49.044;8.716;2022-09-09T06:18:52;98652.13;;;18.63;63.96
25610;BME280;13479;49.044;8.716;2022-09-09T06:21:23;98685.53;;;20.16;59.58
25610;BME280;13479;49.044;8.716;2022-09-09T06:23:49;98677.97;;;21.99;54.13
25610;BME280;13479;49.044;8.716;2022-09-09T06:26:27;98692.09;;;23.67;48.43
25610;BME280;13479;49.044;8.716;2022-09-09T06:28:54;98712.59;;;25.15;45.50
25610;BME280;13479;49.044;8.716;2022-09-09T06:31:22;98708.97;;;26.10;43.26
25610;BME280;13479;49.044;8.716;2022-09-09T06:33:49;98701.19;;;25.89;43.34
25610;BME280;13479;49.044;8.716;2022-09-09T06:36:17;98696.88;;;25.29;43.84
25610;BME280;13479;49.044;8.716;2022-09-09T06:38:43;98675.41;;;24.61;44.90
25610;BME280;13479;49.044;8.716;2022-09-09T06:41:09;98659.09;;;24.80;44.65
25610;BME280;13479;49.044;8.716;2022-09-09T06:43:35;98699.16;;;25.44;44.06
25610;BME280;13479;49.044;8.716;2022-09-09T06:46:06;98685.91;;;25.12;43.92
25610;BME280;13479;49.044;8.716;2022-09-09T06:48:33;98685.72;;;24.71;44.63
25610;BME280;13479;49.044;8.716;2022-09-09T06:53:32;98620.78;;;24.03;46.18
25610;BME280;13479;49.044;8.716;2022-09-09T06:56:02;98600.03;;;23.60;47.15
25610;BME280;13479;49.044;8.716;2022-09-09T06:58:29;98574.66;;;23.24;48.25
25610;BME280;13479;49.044;8.716;2022-09-09T07:01:05;98568.88;;;22.76;48.82
25610;BME280;13479;49.044;8.716;2022-09-09T07:03:30;98568.88;;;22.95;49.26
25610;BME280;13479;49.044;8.716;2022-09-09T07:05:56;98566.59;;;22.73;49.50
25610;BME280;13479;49.044;8.716;2022-09-09T07:08:22;98564.66;;;22.30;50.77
25610;BME280;13479;49.044;8.716;2022-09-09T07:10:47;98563.97;;;22.09;51.94
25610;BME280;13479;49.044;8.716;2022-09-09T07:13:13;98565.81;;;21.83;52.55
25610;BME280;13479;49.044;8.716;2022-09-09T07:15:40;98561.50;;;21.69;53.37
25610;BME280;13479;49.044;8.716;2022-09-09T07:18:06;98560.91;;;22.05;53.68
25610;BME280;13479;49.044;8.716;2022-09-09T07:20:31;98642.06;;;23.69;50.20
25610;BME280;13479;49.044;8.716;2022-09-09T07:22:57;98700.88;;;24.79;47.43
25610;BME280;13479;49.044;8.716;2022-09-09T07:25:23;98715.78;;;25.36;44.82
25610;BME280;13479;49.044;8.716;2022-09-09T07:27:48;98721.94;;;26.08;43.77
25610;BME280;13479;49.044;8.716;2022-09-09T07:30:14;98733.16;;;27.15;42.08
25610;BME280;13479;49.044;8.716;2022-09-09T07:32:39;98745.13;;;27.87;39.09
25610;BME280;13479;49.044;8.716;2022-09-09T07:35:05;98756.59;;;28.84;38.37
25610;BME280;13479;49.044;8.716;2022-09-09T07:37:30;98777.16;;;31.04;35.29
25610;BME280;13479;49.044;8.716;2022-09-09T07:39:56;98782.56;;;32.58;31.99
25610;BME280;13479;49.044;8.716;2022-09-09T07:42:21;98797.28;;;32.77;31.54
25610;BME280;13479;49.044;8.716;2022-09-09T07:44:46;98809.41;;;32.71;30.56
25610;BME280;13479;49.044;8.716;2022-09-09T07:47:11;98808.38;;;31.86;31.68
25610;BME280;13479;49.044;8.716;2022-09-09T07:49:37;98782.38;;;30.95;33.46
25610;BME280;13479;49.044;8.716;2022-09-09T07:52:02;98752.22;;;30.01;34.55
25610;BME280;13479;49.044;8.716;2022-09-09T07:54:28;98735.09;;;29.25;35.66
25610;BME280;13479;49.044;8.716;2022-09-09T07:56:53;98715.59;;;28.51;36.84
25610;BME280;13479;49.044;8.716;2022-09-09T07:59:19;98695.13;;;28.54;37.12
25610;BME280;13479;49.044;8.716;2022-09-09T08:01:47;98701.72;;;30.40;35.41
25610;BME280;13479;49.044;8.716;2022-09-09T08:04:16;98748.41;;;33.09;30.79
25610;BME280;13479;49.044;8.716;2022-09-09T08:07:00;98786.59;;;35.38;27.57
25610;BME280;13479;49.044;8.716;2022-09-09T08:09:28;98810.41;;;37.24;25.59
25610;BME280;13479;49.044;8.716;2022-09-09T08:11:55;98822.91;;;38.65;23.72
25610;BME280;13479;49.044;8.716;2022-09-09T08:14:22;98820.88;;;39.62;22.00
25610;BME280;13479;49.044;8.716;2022-09-09T08:16:49;98833.69;;;40.83;21.04
25610;BME280;13479;49.044;8.716;2022-09-09T08:19:15;98833.72;;;42.46;19.36
25610;BME280;13479;49.044;8.716;2022-09-09T08:21:42;98831.59;;;43.53;18.48
25610;BME280;13479;49.044;8.716;2022-09-09T08:24:09;98829.94;;;43.64;17.60
25610;BME280;13479;49.044;8.716;2022-09-09T08:26:43;98828.88;;;43.41;17.39
25610;BME280;13479;49.044;8.716;2022-09-09T08:29:11;98834.41;;;43.53;17.25
25610;BME280;13479;49.044;8.716;2022-09-09T08:31:38;98839.31;;;44.04;16.67
25610;BME280;13479;49.044;8.716;2022-09-09T08:34:05;98845.66;;;44.17;16.43
25610;BME280;13479;49.044;8.716;2022-09-09T08:36:39;98841.13;;;44.28;16.46
25610;BME280;13479;49.044;8.716;2022-09-09T08:39:06;98844.38;;;44.31;16.03
25610;BME280;13479;49.044;8.716;2022-09-09T08:44:35;98840.06;;;43.85;16.13
25610;BME280;13479;49.044;8.716;2022-09-09T08:47:17;98829.13;;;43.80;16.00
25610;BME280;13479;49.044;8.716;2022-09-09T08:53:00;98837.72;;;42.73;17.20
25610;BME280;13479;49.044;8.716;2022-09-09T08:55:46;98844.69;;;41.01;18.63
25610;BME280;13479;49.044;8.716;2022-09-09T08:58:16;98854.34;;;38.43;22.69
25610;BME280;13479;49.044;8.716;2022-09-09T09:09:35;98862.13;;;29.22;35.69
25610;BME280;13479;49.044;8.716;2022-09-09T09:12:16;98865.41;;;28.25;38.11
25610;BME280;13479;49.044;8.716;2022-09-09T09:14:44;98844.72;;;29.28;37.63
25610;BME280;13479;49.044;8.716;2022-09-09T09:17:14;98800.63;;;32.14;33.71
25610;BME280;13479;49.044;8.716;2022-09-09T09:19:41;98766.06;;;34.34;30.43
25610;BME280;13479;49.044;8.716;2022-09-09T09:22:23;98780.13;;;36.31;27.28
25610;BME280;13479;49.044;8.716;2022-09-09T09:24:56;98786.06;;;36.39;26.54
25610;BME280;13479;49.044;8.716;2022-09-09T09:27:40;98788.78;;;37.58;26.04
25610;BME280;13479;49.044;8.716;2022-09-09T09:30:16;98793.59;;;38.15;25.42
25610;BME280;13479;49.044;8.716;2022-09-09T09:32:49;98789.13;;;37.88;25.19
25610;BME280;13479;49.044;8.716;2022-09-09T09:35:15;98792.09;;;36.55;25.77
25610;BME280;13479;49.044;8.716;2022-09-09T09:37:41;98778.59;;;35.22;26.72
25610;BME280;13479;49.044;8.716;2022-09-09T09:40:14;98771.13;;;34.27;29.20
25610;BME280;13479;49.044;8.716;2022-09-09T09:42:54;98757.09;;;34.67;28.22
25610;BME280;13479;49.044;8.716;2022-09-09T09:45:41;98752.34;;;34.54;27.12
25610;BME280;13479;49.044;8.716;2022-09-09T09:48:11;98757.03;;;34.91;26.79
25610;BME280;13479;49.044;8.716;2022-09-09T09:53:26;98761.91;;;33.40;28.84
25610;BME280;13479;49.044;8.716;2022-09-09T09:55:57;98752.19;;;32.39;30.28
25610;BME280;13479;49.044;8.716;2022-09-09T09:58:24;98747.78;;;31.72;30.61
25610;BME280;13479;49.044;8.716;2022-09-09T10:00:52;98738.50;;;31.47;31.12
25610;BME280;13479;49.044;8.716;2022-09-09T10:03:26;98743.44;;;31.50;31.75
25610;BME280;13479;49.044;8.716;2022-09-09T10:05:52;98735.16;;;32.87;29.30
25610;BME280;13479;49.044;8.716;2022-09-09T10:08:18;98732.75;;;33.93;27.63
25610;BME280;13479;49.044;8.716;2022-09-09T10:10:49;98745.50;;;34.70;26.08
25610;BME280;13479;49.044;8.716;2022-09-09T10:19:32;98770.59;;;37.11;23.41
25610;BME280;13479;49.044;8.716;2022-09-09T10:22:26;98776.66;;;37.76;23.08
25610;BME280;13479;49.044;8.716;2022-09-09T10:27:33;98777.84;;;38.33;21.50
25610;BME280;13479;49.044;8.716;2022-09-09T10:43:16;98753.66;;;36.02;23.80
25610;BME280;13479;49.044;8.716;2022-09-09T10:46:20;98757.47;;;36.07;23.96
25610;BME280;13479;49.044;8.716;2022-09-09T10:49:09;98769.06;;;35.76;23.32
25610;BME280;13479;49.044;8.716;2022-09-09T10:52:09;98770.44;;;34.60;23.96
25610;BME280;13479;49.044;8.716;2022-09-09T10:57:40;98736.34;;;32.20;27.58
25610;BME280;13479;49.044;8.716;2022-09-09T11:00:18;98746.44;;;31.43;29.39
25610;BME280;13479;49.044;8.716;2022-09-09T11:02:49;98733.84;;;30.91;30.04
25610;BME280;13479;49.044;8.716;2022-09-09T11:05:20;98744.72;;;30.44;31.04
25610;BME280;13479;49.044;8.716;2022-09-09T11:07:51;98736.31;;;29.87;32.20
25610;BME280;13479;49.044;8.716;2022-09-09T11:13:03;98733.16;;;29.20;33.83
25610;BME280;13479;49.044;8.716;2022-09-09T11:15:42;98732.66;;;29.28;34.04
25610;BME280;13479;49.044;8.716;2022-09-09T11:18:13;98724.53;;;29.39;32.89
25610;BME280;13479;49.044;8.716;2022-09-09T11:20:40;98710.06;;;29.43;31.96
25610;BME280;13479;49.044;8.716;2022-09-09T11:23:17;98706.06;;;29.19;33.29
25610;BME280;13479;49.044;8.716;2022-09-09T11:25:48;98698.38;;;28.78;33.48
25610;BME280;13479;49.044;8.716;2022-09-09T11:28:39;98708.97;;;28.47;33.73
25610;BME280;13479;49.044;8.716;2022-09-09T11:31:27;98696.72;;;27.78;33.46
25610;BME280;13479;49.044;8.716;2022-09-09T11:39:38;98686.63;;;26.54;36.26
25610;BME280;13479;49.044;8.716;2022-09-09T11:44:38;98668.16;;;26.39;37.65
25610;BME280;13479;49.044;8.716;2022-09-09T11:47:21;98669.66;;;26.46;37.48
25610;BME280;13479;49.044;8.716;2022-09-09T11:49:49;98649.84;;;26.51;37.15
25610;BME280;13479;49.044;8.716;2022-09-09T11:52:35;98647.78;;;26.41;36.17
25610;BME280;13479;49.044;8.716;2022-09-09T11:55:20;98638.38;;;26.49;36.31
25610;BME280;13479;49.044;8.716;2022-09-09T11:57:58;98639.97;;;26.62;36.26
25610;BME280;13479;49.044;8.716;2022-09-09T12:00:34;98636.50;;;26.49;35.78
25610;BME280;13479;49.044;8.716;2022-09-09T12:03:00;98631.34;;;26.07;36.79
25610;BME280;13479;49.044;8.716;2022-09-09T12:05:37;98633.41;;;26.00;36.01
25610;BME280;13479;49.044;8.716;2022-09-09T12:08:04;98622.03;;;25.74;37.13
25610;BME280;13479;49.044;8.716;2022-09-09T12:10:36;98617.13;;;25.59;37.15
25610;BME280;13479;49.044;8.716;2022-09-09T12:13:21;98606.91;;;25.13;37.39
25610;BME280;13479;49.044;8.716;2022-09-09T12:15:58;98613.41;;;24.77;38.81
25610;BME280;13479;49.044;8.716;2022-09-09T12:18:35;98617.28;;;24.69;39.48
25610;BME280;13479;49.044;8.716;2022-09-09T12:21:12;98605.00;;;24.66;39.44
25610;BME280;13479;49.044;8.716;2022-09-09T12:23:45;98614.78;;;24.67;38.62
25610;BME280;13479;49.044;8.716;2022-09-09T12:26:32;98611.59;;;24.59;39.17
25610;BME280;13479;49.044;8.716;2022-09-09T12:31:51;98606.44;;;24.69;39.50
25610;BME280;13479;49.044;8.716;2022-09-09T12:34:35;98599.59;;;24.78;39.19
25610;BME280;13479;49.044;8.716;2022-09-09T12:37:30;98593.81;;;24.98;38.88
25610;BME280;13479;49.044;8.716;2022-09-09T12:39:59;98590.38;;;25.03;39.07
25610;BME280;13479;49.044;8.716;2022-09-09T12:42:25;98590.84;;;25.12;39.55
25610;BME280;13479;49.044;8.716;2022-09-09T12:45:01;98596.75;;;25.21;39.28
25610;BME280;13479;49.044;8.716;2022-09-09T12:50:21;98608.16;;;25.47;38.03
25610;BME280;13479;49.044;8.716;2022-09-09T12:52:48;98613.09;;;25.62;38.22
25610;BME280;13479;49.044;8.716;2022-09-09T12:55:19;98614.47;;;25.76;38.35
25610;BME280;13479;49.044;8.716;2022-09-09T12:57:47;98642.56;;;25.82;37.45
25610;BME280;13479;49.044;8.716;2022-09-09T13:00:20;98633.81;;;25.92;36.36
25610;BME280;13479;49.044;8.716;2022-09-09T13:02:56;98648.19;;;26.04;36.53
25610;BME280;13479;49.044;8.716;2022-09-09T13:05:36;98645.22;;;26.05;36.46
25610;BME280;13479;49.044;8.716;2022-09-09T13:08:03;98648.63;;;26.13;36.75
25610;BME280;13479;49.044;8.716;2022-09-09T13:10:33;98654.09;;;26.01;36.26
25610;BME280;13479;49.044;8.716;2022-09-09T13:12:59;98647.94;;;25.77;36.46
25610;BME280;13479;49.044;8.716;2022-09-09T13:15:28;98644.97;;;25.78;36.55
25610;BME280;13479;49.044;8.716;2022-09-09T13:17:56;98640.00;;;25.75;37.05
25610;BME280;13479;49.044;8.716;2022-09-09T13:20:23;98630.75;;;25.88;37.34
25610;BME280;13479;49.044;8.716;2022-09-09T13:22:51;98663.00;;;25.96;34.70
25610;BME280;13479;49.044;8.716;2022-09-09T13:27:53;98671.47;;;26.00;33.52
25610;BME280;13479;49.044;8.716;2022-09-09T13:30:32;98675.19;;;25.94;34.75
25610;BME280;13479;49.044;8.716;2022-09-09T13:35:47;98682.88;;;25.85;34.71
25610;BME280;13479;49.044;8.716;2022-09-09T13:38:15;98671.16;;;25.84;35.07
25610;BME280;13479;49.044;8.716;2022-09-09T13:40:52;98667.03;;;25.94;34.86
25610;BME280;13479;49.044;8.716;2022-09-09T13:43:21;98653.84;;;26.02;36.02
25610;BME280;13479;49.044;8.716;2022-09-09T13:45:55;98652.25;;;26.18;36.69
25610;BME280;13479;49.044;8.716;2022-09-09T13:48:22;98639.94;;;26.28;36.73
25610;BME280;13479;49.044;8.716;2022-09-09T13:50:58;98622.19;;;26.25;37.23
25610;BME280;13479;49.044;8.716;2022-09-09T13:53:24;98608.94;;;26.12;37.75
25610;BME280;13479;49.044;8.716;2022-09-09T13:55:50;98617.69;;;26.02;38.18
25610;BME280;13479;49.044;8.716;2022-09-09T13:58:17;98609.53;;;26.02;38.52
25610;BME280;13479;49.044;8.716;2022-09-09T14:00:44;98605.63;;;25.98;39.81
25610;BME280;13479;49.044;8.716;2022-09-09T14:03:09;98592.94;;;26.15;39.50
25610;BME280;13479;49.044;8.716;2022-09-09T14:05:35;98600.75;;;26.12;39.29
25610;BME280;13479;49.044;8.716;2022-09-09T14:08:03;98600.75;;;26.12;38.83
25610;BME280;13479;49.044;8.716;2022-09-09T14:10:29;98595.78;;;26.09;38.69
25610;BME280;13479;49.044;8.716;2022-09-09T14:12:54;98597.31;;;26.16;38.15
25610;BME280;13479;49.044;8.716;2022-09-09T14:15:20;98597.16;;;26.23;38.33
25610;BME280;13479;49.044;8.716;2022-09-09T14:17:46;98597.97;;;26.24;38.37
25610;BME280;13479;49.044;8.716;2022-09-09T14:20:13;98597.56;;;26.03;38.76
25610;BME280;13479;49.044;8.716;2022-09-09T14:22:40;98594.66;;;25.93;38.64
25610;BME280;13479;49.044;8.716;2022-09-09T14:25:06;98598.34;;;25.86;38.98
25610;BME280;13479;49.044;8.716;2022-09-09T14:27:32;98601.66;;;25.88;39.26
25610;BME280;13479;49.044;8.716;2022-09-09T14:29:58;98601.84;;;25.99;39.30
25610;BME280;13479;49.044;8.716;2022-09-09T14:32:25;98605.53;;;26.21;38.99
25610;BME280;13479;49.044;8.716;2022-09-09T14:34:50;98605.72;;;26.32;38.84
25610;BME280;13479;49.044;8.716;2022-09-09T14:37:16;98619.16;;;26.39;38.59
25610;BME280;13479;49.044;8.716;2022-09-09T14:39:42;98616.28;;;26.45;38.65
25610;BME280;13479;49.044;8.716;2022-09-09T14:42:09;98612.91;;;26.55;38.24
25610;BME280;13479;49.044;8.716;2022-09-09T14:44:36;98622.91;;;26.49;38.25
25610;BME280;13479;49.044;8.716;2022-09-09T14:47:03;98642.03;;;26.55;38.22
25610;BME280;13479;49.044;8.716;2022-09-09T14:49:28;98637.66;;;26.54;38.06
25610;BME280;13479;49.044;8.716;2022-09-09T14:51:53;98630.38;;;26.59;38.33
25610;BME280;13479;49.044;8.716;2022-09-09T14:54:19;98630.97;;;26.44;38.76
25610;BME280;13479;49.044;8.716;2022-09-09T14:56:46;98613.63;;;26.16;39.61
25610;BME280;13479;49.044;8.716;2022-09-09T14:59:12;98608.41;;;25.86;40.24
25610;BME280;13479;49.044;8.716;2022-09-09T15:01:38;98616.19;;;25.53;41.14
25610;BME280;13479;49.044;8.716;2022-09-09T15:04:04;98618.09;;;25.41;41.56
25610;BME280;13479;49.044;8.716;2022-09-09T15:06:31;98612.56;;;25.12;42.75
25610;BME280;13479;49.044;8.716;2022-09-09T15:08:59;98601.59;;;24.83;43.33
25610;BME280;13479;49.044;8.716;2022-09-09T15:11:29;98608.97;;;24.52;44.17
25610;BME280;13479;49.044;8.716;2022-09-09T15:13:55;98603.50;;;24.28;44.87
25610;BME280;13479;49.044;8.716;2022-09-09T15:16:27;98614.69;;;24.20;45.18
25610;BME280;13479;49.044;8.716;2022-09-09T15:18:55;98615.50;;;23.90;45.58
25610;BME280;13479;49.044;8.716;2022-09-09T15:21:23;98617.69;;;23.81;45.67
25610;BME280;13479;49.044;8.716;2022-09-09T15:23:49;98622.09;;;23.64;46.12
25610;BME280;13479;49.044;8.716;2022-09-09T15:26:15;98607.88;;;23.50;45.12
25610;BME280;13479;49.044;8.716;2022-09-09T15:28:41;98609.09;;;23.35;46.90
25610;BME280;13479;49.044;8.716;2022-09-09T15:31:11;98637.66;;;23.12;49.47
25610;BME280;13479;49.044;8.716;2022-09-09T15:33:37;98635.50;;;22.96;50.50
25610;BME280;13479;49.044;8.716;2022-09-09T15:36:23;98638.66;;;22.67;51.59
25610;BME280;13479;49.044;8.716;2022-09-09T15:38:49;98633.97;;;22.56;51.29
25610;BME280;13479;49.044;8.716;2022-09-09T15:41:15;98632.06;;;22.25;52.18
25610;BME280;13479;49.044;8.716;2022-09-09T15:43:48;98646.72;;;22.10;52.88
25610;BME280;13479;49.044;8.716;2022-09-09T15:48:49;98645.34;;;22.01;52.83
25610;BME280;13479;49.044;8.716;2022-09-09T15:51:15;98654.38;;;22.13;51.13
25610;BME280;13479;49.044;8.716;2022-09-09T15:53:41;98635.91;;;22.10;51.17
25610;BME280;13479;49.044;8.716;2022-09-09T15:56:07;98639.59;;;22.23;50.10
25610;BME280;13479;49.044;8.716;2022-09-09T15:58:33;98662.34;;;22.40;49.01
25610;BME280;13479;49.044;8.716;2022-09-09T16:03:30;98677.28;;;22.49;47.69
25610;BME280;13479;49.044;8.716;2022-09-09T16:05:58;98693.72;;;22.80;46.75
25610;BME280;13479;49.044;8.716;2022-09-09T16:08:23;98684.50;;;22.88;46.75
25610;BME280;13479;49.044;8.716;2022-09-09T16:10:49;98679.09;;;22.88;46.97
25610;BME280;13479;49.044;8.716;2022-09-09T16:13:14;98686.03;;;22.77;47.36
25610;BME280;13479;49.044;8.716;2022-09-09T16:15:39;98672.75;;;22.75;47.90
25610;BME280;13479;49.044;8.716;2022-09-09T16:18:05;98660.91;;;22.70;48.49
25610;BME280;13479;49.044;8.716;2022-09-09T16:20:30;98645.69;;;22.50;49.37
25610;BME280;13479;49.044;8.716;2022-09-09T16:22:55;98651.97;;;22.37;49.89
25610;BME280;13479;49.044;8.716;2022-09-09T16:25:22;98639.47;;;22.36;49.50
25610;BME280;13479;49.044;8.716;2022-09-09T16:27:47;98637.53;;;22.18;49.59
25610;BME280;13479;49.044;8.716;2022-09-09T16:30:12;98640.47;;;22.10;49.26
25610;BME280;13479;49.044;8.716;2022-09-09T16:32:38;98653.63;;;21.99;48.81
25610;BME280;13479;49.044;8.716;2022-09-09T16:35:03;98657.50;;;21.78;48.80
25610;BME280;13479;49.044;8.716;2022-09-09T16:37:29;98643.19;;;21.57;49.59
25610;BME280;13479;49.044;8.716;2022-09-09T16:39:55;98632.88;;;21.41;50.00
25610;BME280;13479;49.044;8.716;2022-09-09T16:42:20;98627.28;;;21.22;49.85
25610;BME280;13479;49.044;8.716;2022-09-09T16:44:45;98636.72;;;21.00;50.21
25610;BME280;13479;49.044;8.716;2022-09-09T16:47:10;98633.75;;;20.67;50.93
25610;BME280;13479;49.044;8.716;2022-09-09T16:49:36;98638.94;;;20.49;51.47
25610;BME280;13479;49.044;8.716;2022-09-09T16:52:01;98644.28;;;20.22;52.36
25610;BME280;13479;49.044;8.716;2022-09-09T16:54:27;98645.34;;;20.14;52.62
25610;BME280;13479;49.044;8.716;2022-09-09T16:56:52;98647.34;;;19.92;53.62
25610;BME280;13479;49.044;8.716;2022-09-09T16:59:19;98658.16;;;20.05;53.02
25610;BME280;13479;49.044;8.716;2022-09-09T17:01:46;98664.22;;;19.72;54.06
25610;BME280;13479;49.044;8.716;2022-09-09T17:04:17;98671.44;;;19.58;54.79
25610;BME280;13479;49.044;8.716;2022-09-09T17:06:46;98664.97;;;19.53;54.86
25610;BME280;13479;49.044;8.716;2022-09-09T17:09:14;98667.03;;;19.51;55.01
25610;BME280;13479;49.044;8.716;2022-09-09T17:11:39;98667.81;;;19.44;55.24
25610;BME280;13479;49.044;8.716;2022-09-09T17:14:06;98663.22;;;19.38;55.70
25610;BME280;13479;49.044;8.716;2022-09-09T17:16:33;98678.19;;;19.48;55.33
25610;BME280;13479;49.044;8.716;2022-09-09T17:18:59;98676.03;;;19.36;55.56
25610;BME280;13479;49.044;8.716;2022-09-09T17:21:26;98675.41;;;19.34;55.83
25610;BME280;13479;49.044;8.716;2022-09-09T17:23:53;98661.31;;;19.32;56.19
25610;BME280;13479;49.044;8.716;2022-09-09T17:26:21;98665.03;;;19.31;56.31
25610;BME280;13479;49.044;8.716;2022-09-09T17:28:46;98661.91;;;19.27;56.61
25610;BME280;13479;49.044;8.716;2022-09-09T17:31:14;98663.75;;;19.20;56.95
25610;BME280;13479;49.044;8.716;2022-09-09T17:33:41;98661.88;;;19.21;57.14
25610;BME280;13479;49.044;8.716;2022-09-09T17:36:16;98692.19;;;19.36;55.85
25610;BME280;13479;49.044;8.716;2022-09-09T17:38:42;98670.09;;;19.12;57.34
25610;BME280;13479;49.044;8.716;2022-09-09T17:41:16;98673.91;;;19.25;56.92
25610;BME280;13479;49.044;8.716;2022-09-09T17:43:42;98665.09;;;19.09;57.94
25610;BME280;13479;49.044;8.716;2022-09-09T17:46:19;98673.16;;;19.03;58.11
25610;BME280;13479;49.044;8.716;2022-09-09T17:48:46;98668.28;;;18.91;58.44
25610;BME280;13479;49.044;8.716;2022-09-09T17:51:15;98663.22;;;18.81;58.63
25610;BME280;13479;49.044;8.716;2022-09-09T17:53:45;98663.16;;;18.75;59.05
25610;BME280;13479;49.044;8.716;2022-09-09T17:56:13;98663.06;;;18.61;59.36
25610;BME280;13479;49.044;8.716;2022-09-09T17:58:40;98669.38;;;18.53;59.56
25610;BME280;13479;49.044;8.716;2022-09-09T18:01:08;98675.53;;;18.69;59.22
25610;BME280;13479;49.044;8.716;2022-09-09T18:03:35;98667.19;;;18.64;59.36
25610;BME280;13479;49.044;8.716;2022-09-09T18:06:02;98670.41;;;18.52;59.88
25610;BME280;13479;49.044;8.716;2022-09-09T18:08:28;98671.84;;;18.48;60.14
25610;BME280;13479;49.044;8.716;2022-09-09T18:10:54;98670.75;;;18.43;60.54
25610;BME280;13479;49.044;8.716;2022-09-09T18:13:20;98671.84;;;18.27;61.00
25610;BME280;13479;49.044;8.716;2022-09-09T18:15:45;98675.66;;;18.17;61.20
25610;BME280;13479;49.044;8.716;2022-09-09T18:18:11;98683.16;;;18.07;61.76
25610;BME280;13479;49.044;8.716;2022-09-09T18:20:36;98680.97;;;17.96;62.35
25610;BME280;13479;49.044;8.716;2022-09-09T18:23:01;98694.88;;;17.84;62.89
25610;BME280;13479;49.044;8.716;2022-09-09T18:25:26;98704.78;;;17.69;63.61
25610;BME280;13479;49.044;8.716;2022-09-09T18:27:52;98719.88;;;17.55;64.39
25610;BME280;13479;49.044;8.716;2022-09-09T18:30:19;98725.88;;;17.57;64.64
25610;BME280;13479;49.044;8.716;2022-09-09T18:32:44;98724.88;;;17.43;65.18
25610;BME280;13479;49.044;8.716;2022-09-09T18:35:09;98734.31;;;17.39;65.61
25610;BME280;13479;49.044;8.716;2022-09-09T18:37:35;98742.44;;;17.31;66.14